createdAt,value
2022-11-19T00:00:33.237Z,1211.58
2022-11-19T00:01:33.248Z,1211.58
2022-11-19T00:02:33.282Z,1211.58
2022-11-19T00:03:34.223Z,1211.58
2022-11-19T00:04:33.224Z,1211.58
2022-11-19T00:05:33.233Z,1211.58
2022-11-19T00:06:33.697Z,1211.58
2022-11-19T00:07:33.784Z,1211.58
2022-11-19T00:08:33.716Z,1211.58
2022-11-19T00:09:34.189Z,1211.58
2022-11-19T00:10:34.127Z,1211.58
2022-11-19T00:11:33.227Z,1211.58
2022-11-19T00:12:33.146Z,1211.58
2022-11-19T00:13:33.187Z,1211.58
2022-11-19T00:14:32.183Z,1211.58
2022-11-19T00:15:34.067Z,1211.58
2022-11-19T00:16:33.067Z,1211.58
2022-11-19T00:17:33.087Z,1211.58
2022-11-19T00:18:32.557Z,1211.58
2022-11-19T00:19:33.587Z,1211.58
2022-11-19T00:20:32.158Z,1211.58
2022-11-19T00:21:32.088Z,1211.58
2022-11-19T00:22:32.089Z,1211.58
2022-11-19T00:23:33.046Z,1211.58
2022-11-19T00:24:32.353Z,1211.58
2022-11-19T00:25:33.010Z,1211.58
2022-11-19T00:26:33.050Z,1211.58
2022-11-19T00:27:33.497Z,1211.58
2022-11-19T00:28:33.019Z,1211.58
2022-11-19T00:29:34.078Z,1211.58
2022-11-19T00:30:47.549Z,1211.58
2022-11-19T00:31:33.029Z,1211.58
2022-11-19T00:32:32.950Z,1211.58
2022-11-19T00:33:32.942Z,1211.58
2022-11-19T00:34:33.882Z,1211.58
2022-11-19T00:35:33.932Z,1211.58
2022-11-19T00:36:33.898Z,1211.58
2022-11-19T00:37:33.843Z,1211.58
2022-11-19T00:38:32.853Z,1211.58
2022-11-19T00:39:33.880Z,1211.58
2022-11-19T00:40:34.727Z,1211.58
2022-11-19T00:41:33.860Z,1211.58
2022-11-19T00:42:32.843Z,1211.58
2022-11-19T00:43:32.853Z,1211.58
2022-11-19T00:44:37.195Z,1211.58
2022-11-19T00:45:33.822Z,1211.58
2022-11-19T00:46:33.795Z,1211.58
2022-11-19T00:47:32.823Z,1211.58
2022-11-19T00:48:33.779Z,1211.58
2022-11-19T00:49:32.726Z,1211.58
2022-11-19T00:50:34.261Z,1211.58
2022-11-19T00:51:32.838Z,1211.58
2022-11-19T00:52:32.715Z,1211.58
2022-11-19T00:53:33.694Z,1211.58
2022-11-19T00:54:31.784Z,1211.58
2022-11-19T00:55:32.733Z,1211.58
2022-11-19T00:56:32.682Z,1211.58
2022-11-19T00:57:32.777Z,1211.58
2022-11-19T00:58:32.632Z,1211.58
2022-11-19T00:59:33.165Z,1211.58
2022-11-19T01:00:32.643Z,1211.58
2022-11-19T01:01:33.726Z,1211.58
2022-11-19T01:02:33.083Z,1211.58
2022-11-19T01:03:33.128Z,1211.58
2022-11-19T01:04:33.065Z,1211.58
2022-11-19T01:05:33.084Z,1211.58
2022-11-19T01:06:32.629Z,1211.58
2022-11-19T01:07:32.721Z,1211.58
2022-11-19T01:08:33.043Z,1211.58
2022-11-19T01:09:32.586Z,1211.58
2022-11-19T01:10:32.532Z,1211.58
2022-11-19T01:11:33.413Z,1211.58
2022-11-19T01:12:31.615Z,1211.58
2022-11-19T01:13:32.969Z,1211.58
2022-11-19T01:14:32.987Z,1211.58
2022-11-19T01:15:33.155Z,1211.58
2022-11-19T01:16:32.965Z,1211.58
2022-11-19T01:17:32.464Z,1211.58
2022-11-19T01:18:33.054Z,1211.58
2022-11-19T01:19:32.448Z,1211.58
2022-11-19T01:20:32.572Z,1211.58
2022-11-19T01:21:33.004Z,1211.58
2022-11-19T01:22:32.927Z,1211.58
2022-11-19T01:23:32.392Z,1211.58
2022-11-19T01:24:32.575Z,1211.58
2022-11-19T01:25:32.896Z,1211.58
2022-11-19T01:26:32.876Z,1211.58
2022-11-19T01:27:32.848Z,1211.58
2022-11-19T01:28:32.832Z,1211.58
2022-11-19T01:29:32.959Z,1211.58
2022-11-19T01:30:32.855Z,1211.58
2022-11-19T01:31:32.848Z,1211.58
2022-11-19T01:32:32.307Z,1211.58
2022-11-19T01:33:32.406Z,1211.58
2022-11-19T01:34:31.527Z,1211.58
2022-11-19T01:35:32.291Z,1211.58
2022-11-19T01:36:32.273Z,1211.58
2022-11-19T01:37:32.258Z,1211.58
2022-11-19T01:38:32.597Z,1211.58
2022-11-19T01:39:32.349Z,1211.58
2022-11-19T01:40:32.727Z,1211.58
2022-11-19T01:41:32.207Z,1211.58
2022-11-19T01:42:32.202Z,1211.58
2022-11-19T01:43:32.172Z,1211.58
2022-11-19T01:44:32.718Z,1211.58
2022-11-19T01:45:33.314Z,1211.58
2022-11-19T01:46:32.141Z,1211.58
2022-11-19T01:47:32.146Z,1211.58
2022-11-19T01:48:32.681Z,1211.58
2022-11-19T01:49:32.618Z,1211.58
2022-11-19T01:50:32.360Z,1211.58
2022-11-19T01:51:32.280Z,1211.58
2022-11-19T01:52:32.590Z,1211.58
2022-11-19T01:53:32.589Z,1211.58
2022-11-19T01:54:31.167Z,1211.58
2022-11-19T01:55:31.624Z,1211.58
2022-11-19T01:56:32.050Z,1211.58
2022-11-19T01:57:32.660Z,1211.58
2022-11-19T01:58:32.029Z,1211.58
2022-11-19T01:59:32.020Z,1211.58
2022-11-19T02:00:32.012Z,1211.58
2022-11-19T02:01:32.058Z,1211.58
2022-11-19T02:02:31.973Z,1211.58
2022-11-19T02:03:32.121Z,1211.58
2022-11-19T02:04:32.461Z,1211.58
2022-11-19T02:05:32.460Z,1211.58
2022-11-19T02:06:31.160Z,1211.58
2022-11-19T02:07:31.959Z,1211.58
2022-11-19T02:08:32.400Z,1211.58
2022-11-19T02:09:31.941Z,1211.58
2022-11-19T02:10:31.881Z,1211.58
2022-11-19T02:11:31.884Z,1211.58
2022-11-19T02:12:31.109Z,1211.58
2022-11-19T02:13:32.360Z,1211.58
2022-11-19T02:14:32.365Z,1211.58
2022-11-19T02:15:30.934Z,1211.58
2022-11-19T02:16:32.400Z,1211.58
2022-11-19T02:17:31.872Z,1211.58
2022-11-19T02:18:32.152Z,1211.58
2022-11-19T02:19:32.185Z,1211.58
2022-11-19T02:20:31.802Z,1211.58
2022-11-19T02:21:32.284Z,1211.58
2022-11-19T02:22:31.806Z,1211.58
2022-11-19T02:23:31.763Z,1211.58
2022-11-19T02:24:31.727Z,1211.58
2022-11-19T02:25:31.766Z,1211.58
2022-11-19T02:26:32.216Z,1211.58
2022-11-19T02:27:32.234Z,1211.58
2022-11-19T02:28:30.866Z,1211.58
2022-11-19T02:29:31.684Z,1211.58
2022-11-19T02:30:30.773Z,1211.58
2022-11-19T02:31:30.860Z,1211.58
2022-11-19T02:32:32.654Z,1211.58
2022-11-19T02:33:31.733Z,1211.58
2022-11-19T02:34:31.664Z,1211.58
2022-11-19T02:35:30.742Z,1211.58
2022-11-19T02:36:32.144Z,1211.58
2022-11-19T02:37:32.249Z,1211.58
2022-11-19T02:38:31.635Z,1211.58
2022-11-19T02:39:32.124Z,1211.58
2022-11-19T02:40:31.904Z,1211.58
2022-11-19T02:41:31.568Z,1211.58
2022-11-19T02:42:31.573Z,1211.58
2022-11-19T02:43:32.075Z,1211.58
2022-11-19T02:44:32.035Z,1211.58
2022-11-19T02:45:31.549Z,1211.58
2022-11-19T02:46:31.536Z,1211.58
2022-11-19T02:47:30.664Z,1211.58
2022-11-19T02:48:32.408Z,1211.58
2022-11-19T02:49:31.786Z,1211.58
2022-11-19T02:50:32.475Z,1211.58
2022-11-19T02:51:31.486Z,1211.58
2022-11-19T02:52:30.565Z,1211.58
2022-11-19T02:53:31.530Z,1211.58
2022-11-19T02:54:31.471Z,1211.58
2022-11-19T02:55:31.556Z,1211.58
2022-11-19T02:56:31.927Z,1211.58
2022-11-19T02:57:31.425Z,1211.58
2022-11-19T02:58:31.489Z,1211.58
2022-11-19T02:59:31.418Z,1211.58
2022-11-19T03:00:30.676Z,1211.58
2022-11-19T03:01:31.965Z,1211.58
2022-11-19T03:02:31.890Z,1211.58
2022-11-19T03:03:31.362Z,1211.58
2022-11-19T03:04:31.329Z,1211.58
2022-11-19T03:05:31.350Z,1211.58
2022-11-19T03:06:31.347Z,1211.58
2022-11-19T03:07:31.907Z,1211.58
2022-11-19T03:08:31.848Z,1211.58
2022-11-19T03:09:31.791Z,1211.58
2022-11-19T03:10:31.298Z,1211.58
2022-11-19T03:11:31.768Z,1211.58
2022-11-19T03:12:31.779Z,1211.58
2022-11-19T03:13:30.425Z,1211.58
2022-11-19T03:14:31.792Z,1211.58
2022-11-19T03:15:31.239Z,1211.58
2022-11-19T03:16:31.688Z,1211.58
2022-11-19T03:17:31.212Z,1211.58
2022-11-19T03:18:31.209Z,1211.58
2022-11-19T03:19:31.701Z,1211.58
2022-11-19T03:20:31.677Z,1211.58
2022-11-19T03:21:30.839Z,1211.58
2022-11-19T03:22:31.693Z,1211.58
2022-11-19T03:23:31.150Z,1211.58
2022-11-19T03:24:31.686Z,1211.58
2022-11-19T03:25:31.149Z,1211.58
2022-11-19T03:26:31.130Z,1211.58
2022-11-19T03:27:31.110Z,1211.58
2022-11-19T03:28:31.589Z,1211.58
2022-11-19T03:29:30.148Z,1211.58
2022-11-19T03:30:31.619Z,1211.58
2022-11-19T03:31:31.189Z,1211.58
2022-11-19T03:32:30.173Z,1211.58
2022-11-19T03:33:31.031Z,1211.58
2022-11-19T03:34:31.520Z,1211.58
2022-11-19T03:35:31.073Z,1211.58
2022-11-19T03:36:30.252Z,1211.58
2022-11-19T03:37:30.090Z,1211.58
2022-11-19T03:38:31.025Z,1211.58
2022-11-19T03:39:31.008Z,1211.58
2022-11-19T03:40:30.161Z,1211.58
2022-11-19T03:41:30.971Z,1211.58
2022-11-19T03:42:31.435Z,1211.58
2022-11-19T03:43:31.012Z,1211.58
2022-11-19T03:44:30.039Z,1211.58
2022-11-19T03:45:30.054Z,1211.58
2022-11-19T03:46:30.914Z,1211.58
2022-11-19T03:47:31.392Z,1211.58
2022-11-19T03:48:29.962Z,1211.58
2022-11-19T03:49:30.992Z,1211.58
2022-11-19T03:50:31.372Z,1211.58
2022-11-19T03:51:31.372Z,1211.58
2022-11-19T03:52:29.916Z,1211.58
2022-11-19T03:53:29.888Z,1211.58
2022-11-19T03:54:31.313Z,1211.58
2022-11-19T03:55:31.312Z,1211.58
2022-11-19T03:56:30.676Z,1211.58
2022-11-19T03:57:29.874Z,1211.58
2022-11-19T03:58:29.844Z,1211.58
2022-11-19T03:59:31.292Z,1211.58
2022-11-19T04:00:29.875Z,1211.58
2022-11-19T04:01:31.303Z,1211.58
2022-11-19T04:02:29.776Z,1211.58
2022-11-19T04:03:31.355Z,1211.58
2022-11-19T04:04:31.254Z,1211.58
2022-11-19T04:05:29.844Z,1211.58
2022-11-19T04:06:31.215Z,1211.58
2022-11-19T04:07:30.729Z,1211.58
2022-11-19T04:08:29.762Z,1211.58
2022-11-19T04:09:29.745Z,1211.58
2022-11-19T04:10:30.594Z,1211.58
2022-11-19T04:12:02.885Z,1007.70
2022-11-19T04:13:03.399Z,1007.70
2022-11-19T04:14:02.866Z,1007.71
2022-11-19T04:15:02.355Z,1007.78
2022-11-19T04:16:02.866Z,1007.73
2022-11-19T04:17:02.854Z,1007.76
2022-11-19T04:18:02.828Z,1007.74
2022-11-19T04:19:02.364Z,1007.80
2022-11-19T04:20:02.872Z,1007.76
2022-11-19T04:21:02.794Z,1007.73
2022-11-19T04:22:01.422Z,1007.73
2022-11-19T04:23:02.254Z,1007.72
2022-11-19T04:24:02.277Z,1007.75
2022-11-19T04:25:02.746Z,1007.76
2022-11-19T04:26:03.245Z,1007.84
2022-11-19T04:27:02.726Z,1007.86
2022-11-19T04:28:02.196Z,1007.84
2022-11-19T04:29:02.214Z,1007.90
2022-11-19T04:30:02.278Z,1007.90
2022-11-19T04:31:02.729Z,1007.93
2022-11-19T04:32:01.255Z,1007.92
2022-11-19T04:33:03.017Z,1007.93
2022-11-19T04:34:03.809Z,1007.87
2022-11-19T04:35:04.075Z,1007.98
2022-11-19T04:36:03.165Z,1007.97
2022-11-19T04:37:02.615Z,1007.93
2022-11-19T04:38:02.106Z,1007.96
2022-11-19T04:39:02.136Z,1007.98
2022-11-19T04:40:02.327Z,1008.00
2022-11-19T04:41:04.556Z,1008.04
2022-11-19T04:42:03.118Z,1008.00
2022-11-19T04:43:02.558Z,1008.03
2022-11-19T04:44:02.539Z,1007.96
2022-11-19T04:45:02.536Z,1008.04
2022-11-19T04:46:02.140Z,1008.02
2022-11-19T04:47:02.556Z,1008.08
2022-11-19T04:48:02.531Z,1008.00
2022-11-19T04:49:01.986Z,1007.95
2022-11-19T04:50:01.968Z,1007.99
2022-11-19T04:51:01.999Z,1008.01
2022-11-19T04:52:02.447Z,1008.08
2022-11-19T04:53:01.953Z,1008.06
2022-11-19T04:54:02.004Z,1008.07
2022-11-19T04:55:02.428Z,1008.09
2022-11-19T04:56:02.428Z,1008.08
2022-11-19T04:57:01.899Z,1008.06
2022-11-19T04:58:01.917Z,1008.09
2022-11-19T04:59:02.391Z,1008.11
2022-11-19T05:00:01.908Z,1008.08
2022-11-19T05:01:02.371Z,1008.10
2022-11-19T05:02:02.370Z,1008.08
2022-11-19T05:03:02.368Z,1008.09
2022-11-19T05:04:01.848Z,1008.11
2022-11-19T05:05:02.331Z,1008.07
2022-11-19T05:06:01.818Z,1008.13
2022-11-19T05:07:02.329Z,1008.12
2022-11-19T05:08:01.798Z,1008.14
2022-11-19T05:09:02.298Z,1008.18
2022-11-19T05:10:01.790Z,1008.14
2022-11-19T05:11:02.279Z,1008.25
2022-11-19T05:12:01.796Z,1008.21
2022-11-19T05:13:01.764Z,1008.20
2022-11-19T05:14:02.219Z,1008.22
2022-11-19T05:15:01.759Z,1008.26
2022-11-19T05:16:02.236Z,1008.23
2022-11-19T05:17:02.221Z,1008.20
2022-11-19T05:18:02.279Z,1008.24
2022-11-19T05:19:02.204Z,1008.23
2022-11-19T05:20:00.730Z,1008.30
2022-11-19T05:21:02.574Z,1008.31
2022-11-19T05:22:02.163Z,1008.23
2022-11-19T05:23:01.654Z,1008.25
2022-11-19T05:24:01.672Z,1008.28
2022-11-19T05:25:00.688Z,1008.34
2022-11-19T05:26:01.615Z,1008.28
2022-11-19T05:27:00.862Z,1008.28
2022-11-19T05:28:00.674Z,1008.37
2022-11-19T05:29:01.582Z,1008.31
2022-11-19T05:30:02.102Z,1008.32
2022-11-19T05:31:01.573Z,1008.38
2022-11-19T05:32:01.562Z,1008.37
2022-11-19T05:33:01.532Z,1008.39
2022-11-19T05:34:02.022Z,1008.42
2022-11-19T05:35:02.132Z,1008.39
2022-11-19T05:36:01.517Z,1008.35
2022-11-19T05:37:01.982Z,1008.47
2022-11-19T05:38:01.493Z,1008.38
2022-11-19T05:39:02.461Z,1008.30
2022-11-19T05:40:01.461Z,1008.35
2022-11-19T05:41:02.501Z,1008.38
2022-11-19T05:42:01.942Z,1008.34
2022-11-19T05:43:01.434Z,1008.40
2022-11-19T05:44:01.929Z,1008.40
2022-11-19T05:45:01.412Z,1008.38
2022-11-19T05:46:01.880Z,1008.42
2022-11-19T05:47:01.894Z,1008.44
2022-11-19T05:48:01.373Z,1008.45
2022-11-19T05:49:01.843Z,1008.46
2022-11-19T05:50:01.883Z,1008.47
2022-11-19T05:51:01.352Z,1008.47
2022-11-19T05:52:00.476Z,1008.44
2022-11-19T05:53:01.917Z,1008.47
2022-11-19T05:54:01.377Z,1008.46
2022-11-19T05:55:01.303Z,1008.46
2022-11-19T05:56:01.316Z,1008.50
2022-11-19T05:57:01.287Z,1008.57
2022-11-19T05:58:01.273Z,1008.53
2022-11-19T05:59:00.616Z,1008.60
2022-11-19T06:00:01.753Z,1008.56
2022-11-19T06:01:01.750Z,1008.56
2022-11-19T06:02:01.723Z,1008.57
2022-11-19T06:03:01.257Z,1008.56
2022-11-19T06:04:01.704Z,1008.57
2022-11-19T06:05:01.734Z,1008.56
2022-11-19T06:06:01.685Z,1008.55
2022-11-19T06:07:01.701Z,1008.59
2022-11-19T06:08:01.666Z,1008.51
2022-11-19T06:09:01.193Z,1008.56
2022-11-19T06:10:01.654Z,1008.59
2022-11-19T06:11:01.677Z,1008.58
2022-11-19T06:12:01.635Z,1008.56
2022-11-19T06:13:01.125Z,1008.59
2022-11-19T06:14:01.605Z,1008.58
2022-11-19T06:15:01.610Z,1008.70
2022-11-19T06:16:01.585Z,1008.64
2022-11-19T06:17:01.695Z,1008.63
2022-11-19T06:18:00.116Z,1008.66
2022-11-19T06:19:00.114Z,1008.60
2022-11-19T06:20:01.535Z,1008.54
2022-11-19T06:21:01.535Z,1008.59
2022-11-19T06:22:01.517Z,1008.60
2022-11-19T06:23:01.544Z,1008.70
2022-11-19T06:24:01.487Z,1008.65
2022-11-19T06:25:00.045Z,1008.70
2022-11-19T06:26:00.839Z,1008.73
2022-11-19T06:27:01.480Z,1008.69
2022-11-19T06:28:00.956Z,1008.76
2022-11-19T06:29:00.114Z,1008.63
2022-11-19T06:30:01.142Z,1008.74
2022-11-19T06:30:59.996Z,1008.77
2022-11-19T06:32:01.427Z,1008.82
2022-11-19T06:33:01.419Z,1008.75
2022-11-19T06:34:00.868Z,1008.80
2022-11-19T06:35:01.501Z,1008.81
2022-11-19T06:35:59.935Z,1008.80
2022-11-19T06:37:00.877Z,1008.77
2022-11-19T06:38:01.347Z,1008.82
2022-11-19T06:39:01.347Z,1008.79
2022-11-19T06:40:01.326Z,1008.83
2022-11-19T06:40:59.938Z,1008.93
2022-11-19T06:41:59.867Z,1008.95
2022-11-19T06:42:59.876Z,1008.93
2022-11-19T06:44:00.009Z,1008.97
2022-11-19T06:45:01.289Z,1008.92
2022-11-19T06:46:01.269Z,1008.98
2022-11-19T06:47:01.277Z,1008.97
2022-11-19T06:48:00.642Z,1009.08
2022-11-19T06:48:59.808Z,1009.12
2022-11-19T06:49:59.820Z,1009.03
2022-11-19T06:51:01.238Z,1009.05
2022-11-19T06:52:01.200Z,1008.96
2022-11-19T06:53:00.109Z,1009.09
2022-11-19T06:54:00.584Z,1009.04
2022-11-19T06:55:00.689Z,1009.03
2022-11-19T06:55:59.753Z,1009.07
2022-11-19T06:56:59.729Z,1009.11
2022-11-19T06:58:00.639Z,1009.05
2022-11-19T06:58:59.729Z,1009.00
2022-11-19T07:00:01.148Z,1009.05
2022-11-19T07:01:01.110Z,1009.04
2022-11-19T07:02:00.619Z,1009.11
2022-11-19T07:03:00.579Z,1009.14
2022-11-19T07:04:01.059Z,1009.13
2022-11-19T07:05:00.581Z,1009.14
2022-11-19T07:06:00.563Z,1009.09
2022-11-19T07:07:00.003Z,1009.15
2022-11-19T07:08:03.170Z,1009.12
2022-11-19T07:09:00.544Z,1009.04
2022-11-19T07:10:01.001Z,1009.18
2022-11-19T07:11:00.621Z,1009.13
2022-11-19T07:11:59.580Z,1009.18
2022-11-19T07:12:59.586Z,1009.18
2022-11-19T07:14:00.960Z,1009.15
2022-11-19T07:15:03.953Z,1009.26
2022-11-19T07:16:01.594Z,1009.18
2022-11-19T07:17:00.946Z,1009.19
2022-11-19T07:18:00.953Z,1009.24
2022-11-19T07:18:59.503Z,1009.26
2022-11-19T07:20:00.405Z,1009.31
2022-11-19T07:21:00.909Z,1009.30
2022-11-19T07:22:00.898Z,1009.28
2022-11-19T07:23:00.873Z,1009.31
2022-11-19T07:23:59.451Z,1009.30
2022-11-19T07:24:59.432Z,1009.34
2022-11-19T07:25:59.432Z,1009.26
2022-11-19T07:27:00.863Z,1009.29
2022-11-19T07:28:00.341Z,1009.32
2022-11-19T07:29:04.372Z,1009.41
2022-11-19T07:29:59.390Z,1009.36
2022-11-19T07:31:00.342Z,1009.46
2022-11-19T07:32:00.302Z,1009.39
2022-11-19T07:33:00.304Z,1009.44
2022-11-19T07:33:59.362Z,1009.45
2022-11-19T07:35:00.277Z,1009.42
2022-11-19T07:35:59.343Z,1009.38
2022-11-19T07:36:59.551Z,1009.49
2022-11-19T07:37:59.973Z,1009.48
2022-11-19T07:39:00.854Z,1009.42
2022-11-19T07:40:00.948Z,1009.44
2022-11-19T07:41:00.081Z,1009.49
2022-11-19T07:41:59.984Z,1009.46
2022-11-19T07:43:00.774Z,1009.53
2022-11-19T07:44:03.653Z,1009.45
2022-11-19T07:44:59.261Z,1009.50
2022-11-19T07:45:59.512Z,1009.50
2022-11-19T07:46:59.437Z,1009.53
2022-11-19T07:47:59.387Z,1009.60
2022-11-19T07:49:00.716Z,1009.57
2022-11-19T07:50:00.191Z,1009.55
2022-11-19T07:51:00.231Z,1009.61
2022-11-19T07:52:00.827Z,1009.71
2022-11-19T07:53:03.179Z,1009.85
2022-11-19T07:54:01.625Z,1009.78
2022-11-19T07:54:59.234Z,1009.90
2022-11-19T07:55:59.248Z,1009.84
2022-11-19T07:56:59.553Z,1009.81
2022-11-19T07:58:00.385Z,1009.82
2022-11-19T07:59:01.073Z,1009.84
2022-11-19T08:00:00.153Z,1009.88
2022-11-19T08:01:00.679Z,1009.85
2022-11-19T08:02:00.717Z,1009.80
2022-11-19T08:03:00.045Z,1009.92
2022-11-19T08:03:59.428Z,1009.93
2022-11-19T08:04:59.128Z,1009.87
2022-11-19T08:06:00.079Z,1009.92
2022-11-19T08:06:59.235Z,1009.94
2022-11-19T08:08:00.557Z,1009.98
2022-11-19T08:08:59.176Z,1009.97
2022-11-19T08:10:00.053Z,1010.00
2022-11-19T08:10:59.176Z,1010.01
2022-11-19T08:12:00.550Z,1010.09
2022-11-19T08:13:00.018Z,1010.05
2022-11-19T08:14:00.571Z,1010.14
2022-11-19T08:14:59.046Z,1010.09
2022-11-19T08:15:59.157Z,1010.11
2022-11-19T08:17:00.503Z,1010.09
2022-11-19T08:18:00.422Z,1010.13
2022-11-19T08:19:00.507Z,1010.13
2022-11-19T08:20:00.009Z,1010.09
2022-11-19T08:20:59.020Z,1010.10
2022-11-19T08:21:59.037Z,1010.10
2022-11-19T08:22:59.010Z,1010.10
2022-11-19T08:23:58.988Z,1010.09
2022-11-19T08:25:00.475Z,1010.05
2022-11-19T08:25:58.959Z,1010.02
2022-11-19T08:26:58.944Z,1010.01
2022-11-19T08:27:58.971Z,1009.97
2022-11-19T08:28:59.875Z,1010.08
2022-11-19T08:30:00.305Z,1010.06
2022-11-19T08:30:59.799Z,1010.06
2022-11-19T08:31:58.872Z,1010.10
2022-11-19T08:32:59.797Z,1010.10
2022-11-19T08:33:58.976Z,1010.14
2022-11-19T08:34:58.830Z,1010.11
2022-11-19T08:36:01.188Z,1010.12
2022-11-19T08:36:58.840Z,1010.12
2022-11-19T08:37:59.619Z,1010.14
2022-11-19T08:38:58.761Z,1010.12
2022-11-19T08:39:59.020Z,1010.27
2022-11-19T08:40:59.570Z,1010.24
2022-11-19T08:41:59.516Z,1010.32
2022-11-19T08:43:00.833Z,1010.30
2022-11-19T08:43:58.680Z,1010.25
2022-11-19T08:44:58.683Z,1010.35
2022-11-19T08:45:59.694Z,1010.29
2022-11-19T08:46:59.629Z,1010.39
2022-11-19T08:47:59.619Z,1010.38
2022-11-19T08:48:59.550Z,1010.28
2022-11-19T08:49:58.695Z,1010.33
2022-11-19T08:50:58.671Z,1010.37
2022-11-19T08:51:59.607Z,1010.41
2022-11-19T08:52:59.532Z,1010.40
2022-11-19T08:53:58.621Z,1010.39
2022-11-19T08:54:58.625Z,1010.45
2022-11-19T08:55:59.555Z,1010.40
2022-11-19T08:56:59.607Z,1010.39
2022-11-19T08:57:58.768Z,1010.45
2022-11-19T08:59:02.713Z,1010.41
2022-11-19T09:00:04.445Z,1010.36
2022-11-19T09:01:01.450Z,1010.37
2022-11-19T09:02:00.149Z,1010.30
2022-11-19T09:02:59.420Z,1010.29
2022-11-19T09:03:59.573Z,1010.25
2022-11-19T09:04:58.522Z,1010.28
2022-11-19T09:05:59.401Z,1010.29
2022-11-19T09:06:58.534Z,1010.36
2022-11-19T09:07:59.430Z,1010.40
2022-11-19T09:08:58.499Z,1010.35
2022-11-19T09:09:59.506Z,1010.36
2022-11-19T09:10:59.966Z,1010.32
2022-11-19T09:11:59.350Z,1010.31
2022-11-19T09:12:59.436Z,1010.33
2022-11-19T09:13:59.893Z,1010.36
2022-11-19T09:14:58.974Z,1010.26
2022-11-19T09:15:58.713Z,1010.39
2022-11-19T09:16:59.319Z,1010.34
2022-11-19T09:17:58.375Z,1010.45
2022-11-19T09:18:59.218Z,1010.43
2022-11-19T09:19:58.328Z,1010.44
2022-11-19T09:20:59.294Z,1010.49
2022-11-19T09:21:59.464Z,1010.55
2022-11-19T09:22:59.202Z,1010.56
2022-11-19T09:23:59.204Z,1010.59
2022-11-19T09:24:58.295Z,1010.61
2022-11-19T09:25:58.257Z,1010.59
2022-11-19T09:27:02.269Z,1010.60
2022-11-19T09:27:58.314Z,1010.61
2022-11-19T09:28:59.173Z,1010.64
2022-11-19T09:29:58.206Z,1010.57
2022-11-19T09:30:59.027Z,1010.65
2022-11-19T09:31:59.193Z,1010.65
2022-11-19T09:32:58.146Z,1010.69
2022-11-19T09:33:59.198Z,1010.66
2022-11-19T09:34:58.990Z,1010.74
2022-11-19T09:35:59.098Z,1010.73
2022-11-19T09:36:59.158Z,1010.70
2022-11-19T09:37:58.155Z,1010.78
2022-11-19T09:38:59.556Z,1010.71
2022-11-19T09:39:59.110Z,1010.61
2022-11-19T09:41:00.148Z,1010.52
2022-11-19T09:41:59.086Z,1010.51
2022-11-19T09:42:59.036Z,1010.49
2022-11-19T09:43:59.557Z,1010.43
2022-11-19T09:44:58.110Z,1010.46
2022-11-19T09:45:58.925Z,1010.41
2022-11-19T09:47:00.011Z,1010.41
2022-11-19T09:47:59.121Z,1010.48
2022-11-19T09:48:59.007Z,1010.43
2022-11-19T09:49:58.984Z,1010.49
2022-11-19T09:50:58.058Z,1010.49
2022-11-19T09:51:59.082Z,1010.46
2022-11-19T09:52:58.948Z,1010.46
2022-11-19T09:53:58.951Z,1010.46
2022-11-19T09:54:58.880Z,1010.39
2022-11-19T09:55:57.941Z,1010.41
2022-11-19T09:57:04.212Z,1010.49
2022-11-19T09:57:59.901Z,1010.45
2022-11-19T09:58:58.950Z,1010.49
2022-11-19T09:59:57.931Z,1010.39
2022-11-19T10:00:58.827Z,1010.37
2022-11-19T10:01:57.924Z,1010.35
2022-11-19T10:02:59.841Z,1010.36
2022-11-19T10:03:58.963Z,1010.40
2022-11-19T10:04:58.835Z,1010.37
2022-11-19T10:05:59.269Z,1010.45
2022-11-19T10:06:58.612Z,1010.42
2022-11-19T10:07:58.700Z,1010.38
2022-11-19T10:08:58.786Z,1010.33
2022-11-19T10:09:59.899Z,1010.41
2022-11-19T10:10:59.254Z,1010.40
2022-11-19T10:11:59.678Z,1010.45
2022-11-19T10:12:59.641Z,1010.41
2022-11-19T10:13:58.074Z,1010.40
2022-11-19T10:14:59.671Z,1010.43
2022-11-19T10:15:59.691Z,1010.42
2022-11-19T10:16:59.123Z,1010.43
2022-11-19T10:17:58.690Z,1010.51
2022-11-19T10:18:59.675Z,1010.51
2022-11-19T10:19:59.262Z,1010.57
2022-11-19T10:20:58.611Z,1010.63
2022-11-19T10:21:59.595Z,1010.57
2022-11-19T10:22:58.584Z,1010.51
2022-11-19T10:23:58.607Z,1010.53
2022-11-19T10:24:59.662Z,1010.51
2022-11-19T10:25:59.003Z,1010.53
2022-11-19T10:27:00.408Z,1010.53
2022-11-19T10:27:57.842Z,1010.50
2022-11-19T10:28:59.552Z,1010.52
2022-11-19T10:29:59.005Z,1010.52
2022-11-19T10:30:59.474Z,1010.53
2022-11-19T10:31:59.486Z,1010.54
2022-11-19T10:32:59.465Z,1010.54
2022-11-19T10:34:00.494Z,1010.59
2022-11-19T10:34:58.937Z,1010.61
2022-11-19T10:35:58.401Z,1010.53
2022-11-19T10:36:59.014Z,1010.43
2022-11-19T10:37:58.895Z,1010.58
2022-11-19T10:38:58.365Z,1010.57
2022-11-19T10:39:58.845Z,1010.61
2022-11-19T10:40:58.366Z,1010.55
2022-11-19T10:41:57.434Z,1010.58
2022-11-19T10:42:58.309Z,1010.50
2022-11-19T10:43:58.424Z,1010.56
2022-11-19T10:44:57.457Z,1010.58
2022-11-19T10:45:59.495Z,1010.53
2022-11-19T10:46:59.303Z,1010.46
2022-11-19T10:48:01.408Z,1010.47
2022-11-19T10:48:59.249Z,1010.57
2022-11-19T10:49:58.257Z,1010.54
2022-11-19T10:50:59.226Z,1010.49
2022-11-19T10:51:59.255Z,1010.60
2022-11-19T10:52:58.757Z,1010.49
2022-11-19T10:53:58.222Z,1010.49
2022-11-19T10:54:58.703Z,1010.49
2022-11-19T10:55:58.186Z,1010.52
2022-11-19T10:56:58.699Z,1010.48
2022-11-19T10:57:58.716Z,1010.41
2022-11-19T10:58:58.189Z,1010.41
2022-11-19T10:59:59.150Z,1010.45
2022-11-19T11:00:58.242Z,1010.42
2022-11-19T11:01:57.721Z,1010.43
2022-11-19T11:02:58.236Z,1010.32
2022-11-19T11:03:57.318Z,1010.33
2022-11-19T11:04:58.650Z,1010.34
2022-11-19T11:05:57.330Z,1010.40
2022-11-19T11:06:58.248Z,1010.42
2022-11-19T11:07:58.053Z,1010.23
2022-11-19T11:08:58.145Z,1010.28
2022-11-19T11:09:58.200Z,1010.30
2022-11-19T11:10:57.126Z,1010.36
2022-11-19T11:11:57.189Z,1010.28
2022-11-19T11:12:58.500Z,1010.34
2022-11-19T11:13:58.588Z,1010.31
2022-11-19T11:14:57.190Z,1010.34
2022-11-19T11:15:57.330Z,1010.25
2022-11-19T11:16:57.148Z,1010.18
2022-11-19T11:17:58.508Z,1010.27
2022-11-19T11:18:57.116Z,1010.29
2022-11-19T11:19:57.952Z,1010.30
2022-11-19T11:20:58.403Z,1010.22
2022-11-19T11:21:58.972Z,1010.28
2022-11-19T11:22:58.430Z,1010.35
2022-11-19T11:23:57.919Z,1010.44
2022-11-19T11:25:00.561Z,1010.33
2022-11-19T11:27:10.593Z,1010.37
2022-11-19T11:28:10.503Z,1010.30
2022-11-19T11:29:09.626Z,1010.44
2022-11-19T11:30:11.031Z,1010.39
2022-11-19T11:31:10.499Z,1010.37
2022-11-19T11:32:10.989Z,1010.28
2022-11-19T11:33:09.640Z,1010.54
2022-11-19T11:34:10.495Z,1010.37
2022-11-19T11:35:15.940Z,1010.44
2022-11-19T11:36:11.945Z,1010.40
2022-11-19T11:37:10.458Z,1010.37
2022-11-19T11:38:10.964Z,1010.38
2022-11-19T11:39:09.590Z,1010.42
2022-11-19T11:40:10.671Z,1010.41
2022-11-19T11:42:01.957Z,1010.46
2022-11-19T11:42:17.259Z,1010.39
2022-11-19T11:43:11.379Z,1010.39
2022-11-19T11:44:10.911Z,1010.36
2022-11-19T11:45:09.562Z,1010.31
2022-11-19T11:46:09.543Z,1010.38
2022-11-19T11:47:10.845Z,1010.37
2022-11-19T11:48:11.322Z,1010.36
2022-11-19T11:49:20.289Z,1010.39
2022-11-19T11:50:11.511Z,1010.40
2022-11-19T11:51:10.322Z,1010.37
2022-11-19T11:52:10.762Z,1010.42
2022-11-19T11:53:09.362Z,1010.41
2022-11-19T11:54:16.615Z,1010.32
2022-11-19T11:55:11.263Z,1010.33
2022-11-19T11:56:09.393Z,1010.35
2022-11-19T11:57:09.294Z,1010.29
2022-11-19T11:58:10.807Z,1010.29
2022-11-19T11:59:10.709Z,1010.33
2022-11-19T12:00:10.753Z,1010.27
2022-11-19T12:01:12.795Z,1010.20
2022-11-19T12:02:11.789Z,1010.26
2022-11-19T12:03:10.364Z,1010.30
2022-11-19T12:04:12.094Z,1010.26
2022-11-19T12:05:09.221Z,1010.22
2022-11-19T12:06:10.170Z,1010.19
2022-11-19T12:07:10.745Z,1010.18